createdAt,value
2018-06-23T00:02:01.915Z,97950.20
2018-06-23T00:04:33.870Z,97944.03
2018-06-23T00:07:06.522Z,97951.03
2018-06-23T00:09:38.780Z,97947.42
2018-06-23T00:12:11.192Z,97951.46
2018-06-23T00:14:43.493Z,97952.34
2018-06-23T00:17:15.936Z,97948.01
2018-06-23T00:19:48.436Z,97954.45
2018-06-23T00:22:20.901Z,97955.27
2018-06-23T00:24:53.300Z,97954.16
2018-06-23T00:27:26.001Z,97956.56
2018-06-23T00:29:58.079Z,97960.30
2018-06-23T00:32:30.246Z,97964.64
2018-06-23T00:35:02.600Z,97967.86
2018-06-23T00:37:35.237Z,97966.78
2018-06-23T00:40:07.745Z,97971.88
2018-06-23T00:42:39.876Z,97979.36
2018-06-23T00:45:12.173Z,97983.47
2018-06-23T00:47:44.971Z,97979.83
2018-06-23T00:50:17.132Z,97983.87
2018-06-23T00:52:49.565Z,97983.94
2018-06-23T00:55:22.151Z,97981.17
2018-06-23T00:57:54.960Z,97998.89
2018-06-23T01:00:27.733Z,98009.53
2018-06-23T01:03:00.942Z,98022.48
2018-06-23T01:05:33.369Z,98015.48
2018-06-23T01:08:05.888Z,98017.91
2018-06-23T01:10:37.866Z,98031.08
2018-06-23T01:13:09.934Z,98031.97
2018-06-23T01:15:42.278Z,98036.77
2018-06-23T01:18:14.628Z,98041.56
2018-06-23T01:20:47.127Z,98043.96
2018-06-23T01:23:19.744Z,98048.59
2018-06-23T01:25:51.660Z,98046.66
2018-06-23T01:28:24.312Z,98044.72
2018-06-23T01:30:56.854Z,98039.33
2018-06-23T01:33:28.987Z,98040.45
2018-06-23T01:36:01.335Z,98045.53
2018-06-23T01:38:33.670Z,98054.14
2018-06-23T01:41:05.618Z,98052.50
2018-06-23T01:43:39.163Z,98050.40
2018-06-23T01:46:11.330Z,98054.44
2018-06-23T01:48:43.755Z,98063.27
2018-06-23T01:51:15.675Z,98064.35
2018-06-23T01:53:48.569Z,98063.53
2018-06-23T01:56:21.093Z,98075.13
2018-06-23T01:58:53.424Z,98068.95
2018-06-23T02:01:25.663Z,98072.47
2018-06-23T02:03:58.134Z,98071.13
2018-06-23T02:06:30.256Z,98067.16
2018-06-23T02:09:03.373Z,98070.30
2018-06-23T02:11:35.740Z,98075.88
2018-06-23T02:14:12.907Z,98075.66
2018-06-23T02:16:49.438Z,98080.52
2018-06-23T02:19:26.940Z,98079.63
2018-06-23T02:22:03.552Z,98081.27
2018-06-23T02:24:40.183Z,98080.22
2018-06-23T02:27:16.858Z,98074.30
2018-06-23T02:29:53.756Z,98067.80
2018-06-23T02:32:30.577Z,98079.09
2018-06-23T02:35:08.304Z,98084.26
2018-06-23T02:37:40.750Z,98095.03
2018-06-23T02:40:14.127Z,98085.01
2018-06-23T02:42:46.298Z,98086.59
2018-06-23T02:45:18.585Z,98089.64
2018-06-23T02:47:50.593Z,98094.73
2018-06-23T02:50:22.757Z,98090.70
2018-06-23T02:52:55.563Z,98100.42
2018-06-23T02:55:27.918Z,98102.52
2018-06-23T02:58:00.060Z,98101.47
2018-06-23T03:00:32.360Z,98096.91
2018-06-23T03:03:04.557Z,98108.20
2018-06-23T03:05:37.526Z,98110.08
2018-06-23T03:08:10.162Z,98116.58
2018-06-23T03:10:42.097Z,98127.92
2018-06-23T03:13:14.514Z,98126.05
2018-06-23T03:15:47.481Z,98131.70
2018-06-23T03:18:19.696Z,98117.41
2018-06-23T03:20:51.768Z,98120.09
2018-06-23T03:23:24.775Z,98121.97
2018-06-23T03:25:57.094Z,98118.75
2018-06-23T03:28:29.428Z,98114.57
2018-06-23T03:31:01.912Z,98119.43
2018-06-23T03:33:33.869Z,98123.02
2018-06-23T03:36:05.784Z,98126.31
2018-06-23T03:38:37.782Z,98130.88
2018-06-23T03:41:09.854Z,98132.78
2018-06-23T03:43:42.059Z,98132.85
2018-06-23T03:46:14.575Z,98127.47
2018-06-23T03:48:46.908Z,98126.42
2018-06-23T03:51:19.240Z,98123.88
2018-06-23T03:53:51.536Z,98109.13
2018-06-23T03:56:24.093Z,98108.61
2018-06-23T03:58:56.698Z,98090.80
2018-06-23T04:01:29.487Z,98085.25
2018-06-23T04:04:01.942Z,98088.22
2018-06-23T04:06:34.669Z,98088.84
2018-06-23T04:09:09.717Z,98087.49
2018-06-23T04:11:42.027Z,98096.92
2018-06-23T04:14:14.279Z,98100.07
2018-06-23T04:16:47.374Z,98108.30
2018-06-23T04:19:19.879Z,98102.02
2018-06-23T04:27:33.604Z,98096.42
2018-06-23T04:30:07.065Z,98099.38
2018-06-23T04:32:40.041Z,98104.80
2018-06-23T04:35:11.951Z,98107.41
2018-06-23T04:37:45.399Z,98097.97
2018-06-23T04:40:18.671Z,98092.86
2018-06-23T04:42:51.363Z,98087.69
2018-06-23T04:45:23.892Z,98091.53
2018-06-23T04:47:56.233Z,98094.83
2018-06-23T04:50:28.796Z,98095.23
2018-06-23T04:53:01.744Z,98088.05
2018-06-23T04:55:34.794Z,98075.82
2018-06-23T04:58:07.737Z,98066.80
2018-06-23T05:00:40.596Z,98072.66
2018-06-23T05:03:12.714Z,98084.00
2018-06-23T05:05:44.986Z,98082.66
2018-06-23T05:08:17.184Z,98079.73
2018-06-23T05:10:49.710Z,98082.72
2018-06-23T05:13:22.962Z,98073.92
2018-06-23T05:15:55.581Z,98077.33
2018-06-23T05:18:27.968Z,98081.08
2018-06-23T05:20:59.893Z,98080.67
2018-06-23T05:23:33.354Z,98085.94
2018-06-23T05:26:05.928Z,98077.45
2018-06-23T05:28:40.229Z,98072.54
2018-06-23T05:31:13.098Z,98068.34
2018-06-23T05:33:45.292Z,98072.67
2018-06-23T05:36:18.345Z,98072.78
2018-06-23T05:38:51.007Z,98071.20
2018-06-23T05:41:23.668Z,98073.37
2018-06-23T05:43:56.353Z,98071.95
2018-06-23T05:46:29.792Z,98069.00
2018-06-23T05:49:02.905Z,98066.73
2018-06-23T05:51:35.504Z,98068.09
2018-06-23T05:54:08.309Z,98059.44
2018-06-23T05:56:40.656Z,98064.11
2018-06-23T05:59:13.873Z,98064.93
2018-06-23T06:01:46.968Z,98057.37
2018-06-23T06:04:19.686Z,98059.61
2018-06-23T06:06:52.578Z,98059.91
2018-06-23T06:09:25.270Z,98053.20
2018-06-23T06:11:57.527Z,98059.18
2018-06-23T06:14:30.667Z,98057.54
2018-06-23T06:17:40.766Z,98051.39
2018-06-23T06:20:14.762Z,98038.67
2018-06-23T06:22:47.933Z,98033.81
2018-06-23T06:25:22.996Z,98034.04
2018-06-23T06:27:55.993Z,98035.69
2018-06-23T06:30:28.662Z,98027.36
2018-06-23T06:33:01.076Z,98029.59
2018-06-23T06:35:33.888Z,98026.41
2018-06-23T06:38:06.664Z,98023.95
2018-06-23T06:40:39.690Z,98022.43
2018-06-23T06:43:11.869Z,98018.55
2018-06-23T06:45:44.595Z,98014.52
2018-06-23T06:48:16.875Z,98004.32
2018-06-23T06:50:49.644Z,98004.12
2018-06-23T06:53:23.515Z,97998.55
2018-06-23T06:55:56.090Z,97988.66
2018-06-23T06:58:28.958Z,97985.49
2018-06-23T07:01:02.232Z,97982.97
2018-06-23T07:03:34.753Z,97982.03
2018-06-23T07:06:07.794Z,97980.98
2018-06-23T07:08:40.223Z,97976.64
2018-06-23T07:11:13.648Z,97976.05
2018-06-23T07:13:46.580Z,97969.78
2018-06-23T07:16:18.887Z,97970.14
2018-06-23T07:18:51.701Z,97966.70
2018-06-23T07:21:24.420Z,97961.38
2018-06-23T07:23:57.112Z,97960.91
2018-06-23T07:26:29.508Z,97960.64
2018-06-23T07:29:02.238Z,97957.77
2018-06-23T07:31:36.150Z,97959.29
2018-06-23T07:34:09.226Z,97952.08
2018-06-23T07:36:42.709Z,97944.23
2018-06-23T07:39:15.863Z,97944.23
2018-06-23T07:41:49.029Z,97937.25
2018-06-23T07:44:22.366Z,97932.67
2018-06-23T07:46:54.982Z,97932.73
2018-06-23T07:49:27.065Z,97923.91
2018-06-23T07:51:59.864Z,97924.72
2018-06-23T07:54:32.063Z,97917.16
2018-06-23T07:57:04.945Z,97919.56
2018-06-23T07:59:37.648Z,97909.62
2018-06-23T08:02:10.081Z,97907.14
2018-06-23T08:04:42.391Z,97895.82
2018-06-23T08:07:15.138Z,97899.94
2018-06-23T08:09:47.812Z,97893.30
2018-06-23T08:12:20.475Z,97892.20
2018-06-23T08:14:53.384Z,97890.39
2018-06-23T08:17:26.392Z,97884.16
2018-06-23T08:19:59.724Z,97879.58
2018-06-23T08:22:32.098Z,97875.61
2018-06-23T08:25:05.046Z,97879.42
2018-06-23T08:27:38.431Z,97868.89
2018-06-23T08:30:11.547Z,97872.98
2018-06-23T08:32:45.940Z,97863.62
2018-06-23T08:35:19.172Z,97864.17
2018-06-23T08:37:52.598Z,97860.41
2018-06-23T08:40:25.633Z,97853.89
2018-06-23T08:42:58.335Z,97856.08
2018-06-23T08:45:30.834Z,97852.03
2018-06-23T08:48:03.917Z,97849.33
2018-06-23T08:50:36.667Z,97838.53
2018-06-23T08:53:10.167Z,97829.10
2018-06-23T08:55:42.841Z,97832.45
2018-06-23T08:58:16.180Z,97824.58
2018-06-23T09:00:49.803Z,97827.91
2018-06-23T09:03:22.909Z,97825.14
2018-06-23T09:05:55.737Z,97811.36
2018-06-23T09:08:28.904Z,97810.06
2018-06-23T09:11:01.728Z,97811.45
2018-06-23T09:13:34.662Z,97802.78
2018-06-23T09:16:08.358Z,97803.55
2018-06-23T09:18:41.438Z,97792.52
2018-06-23T09:21:14.453Z,97792.56
2018-06-23T09:23:47.748Z,97788.42
2018-06-23T09:26:21.231Z,97783.89
2018-06-23T09:35:56.894Z,97773.58
2018-06-23T09:38:30.224Z,97766.41
2018-06-23T09:41:03.713Z,97767.51
2018-06-23T09:43:36.572Z,97766.63
2018-06-23T09:46:10.329Z,97757.90
2018-06-23T09:48:43.809Z,97757.05
2018-06-23T09:51:17.393Z,97745.95
2018-06-23T09:53:49.950Z,97747.84
2018-06-23T09:56:23.535Z,97740.56
2018-06-23T09:58:57.020Z,97741.92
2018-06-23T10:01:31.352Z,97741.64
2018-06-23T10:04:04.804Z,97733.99
2018-06-23T10:06:38.228Z,97729.59
2018-06-23T10:09:12.809Z,97725.84
2018-06-23T10:11:47.315Z,97722.58
2018-06-23T10:14:20.511Z,97718.80
2018-06-23T10:16:53.490Z,97717.75
2018-06-23T10:19:26.765Z,97712.59
2018-06-23T10:22:00.209Z,97696.72
2018-06-23T10:24:33.431Z,97704.53
2018-06-23T10:27:06.481Z,97699.71
2018-06-23T10:29:39.726Z,97690.30
2018-06-23T10:32:13.092Z,97680.28
2018-06-23T10:34:45.961Z,97678.40
2018-06-23T10:37:19.946Z,97672.47
2018-06-23T10:39:53.003Z,97665.44
2018-06-23T10:42:26.467Z,97667.59
2018-06-23T10:44:59.955Z,97660.31
2018-06-23T10:47:33.488Z,97657.94
2018-06-23T10:50:07.311Z,97650.66
2018-06-23T10:52:40.837Z,97647.71
2018-06-23T10:55:13.842Z,97652.09
2018-06-23T10:57:47.815Z,97646.36
2018-06-23T11:00:20.680Z,97641.20
2018-06-23T11:02:53.872Z,97635.28
2018-06-23T11:05:26.917Z,97636.95
2018-06-23T11:08:00.546Z,97635.66
2018-06-23T11:10:33.836Z,97639.19
2018-06-23T11:13:07.016Z,97633.66
2018-06-23T11:15:40.412Z,97651.83
2018-06-23T11:18:13.666Z,97651.76
2018-06-23T11:20:46.885Z,97636.68
2018-06-23T11:23:20.112Z,97643.41
2018-06-23T11:25:53.315Z,97642.43
2018-06-23T11:28:26.429Z,97650.69
2018-06-23T11:30:59.562Z,97645.03
2018-06-23T11:33:33.132Z,97646.25
2018-06-23T11:36:06.860Z,97643.62
2018-06-23T11:38:40.049Z,97652.76
2018-06-23T11:41:12.799Z,97640.67
2018-06-23T11:43:46.034Z,97643.30
2018-06-23T11:46:18.962Z,97645.54
2018-06-23T11:48:51.618Z,97648.17
2018-06-23T11:51:24.468Z,97642.73
2018-06-23T11:53:57.293Z,97644.91
2018-06-23T11:56:30.719Z,97642.48
2018-06-23T11:59:08.174Z,97638.97
2018-06-23T12:01:43.082Z,97638.69
2018-06-23T12:04:27.207Z,97640.32
2018-06-23T12:07:00.360Z,97643.84
2018-06-23T12:09:36.122Z,97645.19
2018-06-23T12:12:09.668Z,97638.63
2018-06-23T12:14:44.651Z,97638.63
2018-06-23T12:17:17.818Z,97638.30
2018-06-23T12:19:51.156Z,97645.37
2018-06-23T12:22:24.585Z,97649.48
2018-06-23T12:24:59.124Z,97651.55
2018-06-23T12:27:32.980Z,97656.95
2018-06-23T12:30:08.404Z,97655.31
2018-06-23T12:32:43.898Z,97655.56
2018-06-23T12:35:17.718Z,97654.18
2018-06-23T12:37:50.864Z,97665.22
2018-06-23T12:40:24.519Z,97662.28
2018-06-23T12:42:57.605Z,97667.96
2018-06-23T12:45:30.817Z,97672.30
2018-06-23T12:48:03.744Z,97676.63
2018-06-23T12:50:37.829Z,97683.92
2018-06-23T12:53:11.049Z,97681.54
2018-06-23T12:55:44.271Z,97678.31
2018-06-23T12:58:18.205Z,97682.03
2018-06-23T13:00:51.276Z,97685.02
2018-06-23T13:03:24.631Z,97698.23
2018-06-23T13:05:58.091Z,97698.20
2018-06-23T13:08:31.076Z,97707.40
2018-06-23T13:11:04.695Z,97711.16
2018-06-23T13:13:38.090Z,97711.66
2018-06-23T13:16:11.365Z,97707.36
2018-06-23T13:18:44.185Z,97709.48
2018-06-23T13:21:17.201Z,97706.53
2018-06-23T13:23:50.678Z,97713.02
2018-06-23T13:26:24.857Z,97713.02
2018-06-23T13:28:57.862Z,97711.12
2018-06-23T13:31:31.255Z,97707.36
2018-06-23T13:34:05.705Z,97718.41
2018-06-23T13:36:38.742Z,97716.52
2018-06-23T13:39:12.480Z,97719.77
2018-06-23T13:41:46.225Z,97719.77
2018-06-23T13:44:19.446Z,97713.02
2018-06-23T13:46:52.632Z,97711.12
2018-06-23T13:49:25.792Z,97714.89
2018-06-23T13:51:59.106Z,97724.05
2018-06-23T13:54:32.377Z,97727.81
2018-06-23T13:57:05.584Z,97742.09
2018-06-23T13:59:39.727Z,97739.95
2018-06-23T14:02:12.960Z,97740.48
2018-06-23T14:04:45.767Z,97735.87
2018-06-23T14:07:19.322Z,97732.92
2018-06-23T14:09:52.768Z,97740.98
2018-06-23T14:12:26.189Z,97745.35
2018-06-23T14:14:59.407Z,97749.94
2018-06-23T14:17:32.688Z,97753.41
2018-06-23T14:20:05.842Z,97757.76
2018-06-23T14:22:39.107Z,97758.58
2018-06-23T14:25:12.728Z,97763.69
2018-06-23T14:27:46.179Z,97766.95
2018-06-23T14:30:19.328Z,97767.73
2018-06-23T14:32:52.513Z,97774.48
2018-06-23T14:35:25.589Z,97775.30
2018-06-23T14:37:58.666Z,97773.41
2018-06-23T14:40:31.702Z,97781.19
2018-06-23T14:43:05.423Z,97778.77
2018-06-23T14:45:38.372Z,97786.30
2018-06-23T14:48:11.949Z,97783.84
2018-06-23T14:50:45.294Z,97790.06
2018-06-23T14:53:18.525Z,97790.34
2018-06-23T14:55:51.722Z,97792.80
2018-06-23T14:58:24.989Z,97796.61
2018-06-23T15:00:58.056Z,97800.13
2018-06-23T15:03:30.892Z,97804.70
2018-06-23T15:06:08.824Z,97810.39
2018-06-23T15:08:51.068Z,97820.13
2018-06-23T15:11:32.745Z,97826.34
2018-06-23T15:14:06.009Z,97836.33
2018-06-23T15:16:39.330Z,97830.93
2018-06-23T15:19:12.499Z,97840.63
2018-06-23T15:21:45.644Z,97837.94
2018-06-23T15:24:18.585Z,97841.45
2018-06-23T15:26:51.720Z,97848.48
2018-06-23T15:29:25.610Z,97844.63
2018-06-23T15:32:01.967Z,97850.31
2018-06-23T15:34:35.529Z,97844.91
2018-06-23T15:37:08.709Z,97847.04
2018-06-23T15:39:42.065Z,97847.28
2018-06-23T15:42:15.239Z,97851.89
2018-06-23T15:44:50.910Z,97862.17
2018-06-23T15:47:29.904Z,97865.16
2018-06-23T15:50:03.632Z,97866.52
2018-06-23T15:52:36.970Z,97869.21
2018-06-23T15:55:17.064Z,97868.15
2018-06-23T15:57:50.427Z,97873.50
2018-06-23T16:00:23.736Z,97873.80
2018-06-23T16:02:59.368Z,97876.25
2018-06-23T16:05:32.660Z,97878.38
2018-06-23T16:08:13.731Z,97881.65
2018-06-23T16:10:47.211Z,97882.18
2018-06-23T16:13:21.069Z,97886.76
2018-06-23T16:15:54.967Z,97888.88
2018-06-23T16:18:28.436Z,97889.69
2018-06-23T16:21:02.021Z,97890.48
2018-06-23T16:23:38.462Z,97896.44
2018-06-23T16:26:11.990Z,97903.57
2018-06-23T16:28:45.442Z,97898.34
2018-06-23T16:31:19.000Z,97891.91
2018-06-23T16:33:52.245Z,97895.38
2018-06-23T16:36:32.273Z,97897.59
2018-06-23T16:39:06.590Z,97896.59
2018-06-23T16:41:39.772Z,97895.25
2018-06-23T16:44:13.284Z,97898.84
2018-06-23T16:46:49.351Z,97898.03
2018-06-23T16:49:22.978Z,97906.13
2018-06-23T16:51:56.594Z,97910.19
2018-06-23T16:54:29.806Z,97902.09
2018-06-23T16:57:02.963Z,97909.12
2018-06-23T16:59:35.858Z,97914.53
2018-06-23T17:02:09.340Z,97912.36
2018-06-23T17:04:44.044Z,97911.59
2018-06-23T17:07:18.755Z,97916.12
2018-06-23T17:09:52.212Z,97915.06
2018-06-23T17:12:25.744Z,97909.42
2018-06-23T17:14:59.295Z,97905.90
2018-06-23T17:17:34.043Z,97904.80
2018-06-23T17:20:09.249Z,97900.48
2018-06-23T17:22:42.797Z,97902.90
2018-06-23T17:25:16.093Z,97907.49
2018-06-23T17:27:51.869Z,97907.77
2018-06-23T17:30:27.406Z,97895.09
2018-06-23T17:33:00.767Z,97896.67
2018-06-23T17:35:34.436Z,97891.81
2018-06-23T17:38:09.377Z,97893.90
2018-06-23T17:40:42.728Z,97893.61
2018-06-23T17:43:17.190Z,97893.90
2018-06-23T17:45:52.015Z,97901.42
2018-06-23T17:48:25.562Z,97892.88
2018-06-23T17:50:58.805Z,97890.89
2018-06-23T17:53:33.150Z,97890.63
2018-06-23T17:56:08.232Z,97889.56
2018-06-23T17:58:43.666Z,97893.08
2018-06-23T18:01:17.104Z,97895.25
2018-06-23T18:03:50.700Z,97888.74
2018-06-23T18:06:26.403Z,97884.45
2018-06-23T18:09:00.111Z,97888.50
2018-06-23T18:11:34.288Z,97883.92
2018-06-23T18:14:08.955Z,97888.29
2018-06-23T18:16:42.451Z,97888.50
2018-06-23T18:19:16.225Z,97892.55
2018-06-23T18:21:50.704Z,97894.67
2018-06-23T18:24:24.173Z,97902.52
2018-06-23T18:26:59.004Z,97901.16
2018-06-23T18:29:33.966Z,97902.75
2018-06-23T18:32:07.189Z,97905.21
2018-06-23T18:34:40.254Z,97902.22
2018-06-23T18:37:13.528Z,97905.98
2018-06-23T18:39:46.524Z,97904.92
2018-06-23T18:42:19.662Z,97902.22
2018-06-23T18:44:52.988Z,97891.67
2018-06-23T18:47:25.917Z,97887.38
2018-06-23T18:49:59.648Z,97881.98
2018-06-23T18:52:32.624Z,97878.17
2018-06-23T18:55:05.784Z,97876.65
2018-06-23T18:57:39.432Z,97874.02
2018-06-23T19:00:12.322Z,97874.36
2018-06-23T19:02:45.397Z,97869.73
2018-06-23T19:05:18.746Z,97867.04
2018-06-23T19:07:51.655Z,97868.67
2018-06-23T19:10:25.132Z,97870.03
2018-06-23T19:12:58.101Z,97869.73
2018-06-23T19:15:30.480Z,97859.17
2018-06-23T19:18:03.580Z,97863.81
2018-06-23T19:20:36.339Z,97866.78
2018-06-23T19:23:09.226Z,97871.60
2018-06-23T19:25:43.017Z,97868.91
2018-06-23T19:28:17.077Z,97869.72
2018-06-23T19:30:50.671Z,97872.66
2018-06-23T19:33:23.798Z,97873.44
2018-06-23T19:35:57.042Z,97872.08
2018-06-23T19:38:30.292Z,97868.84
2018-06-23T19:41:03.546Z,97876.94
2018-06-23T19:43:36.495Z,97872.59
2018-06-23T19:46:09.890Z,97878.81
2018-06-23T19:48:43.611Z,97871.78
2018-06-23T19:51:17.017Z,97863.39
2018-06-23T19:53:50.140Z,97861.23
2018-06-23T19:56:23.233Z,97862.35
2018-06-23T19:58:56.284Z,97858.05
2018-06-23T20:01:29.345Z,97855.34
2018-06-23T20:04:02.531Z,97851.55
2018-06-23T20:06:35.230Z,97856.95
2018-06-23T20:09:11.189Z,97848.86
2018-06-23T20:11:43.885Z,97849.39
2018-06-23T20:14:16.920Z,97845.09
2018-06-23T20:16:50.257Z,97852.37
2018-06-23T20:19:22.879Z,97844.81
2018-06-23T20:21:55.815Z,97845.91
2018-06-23T20:24:29.307Z,97840.22
2018-06-23T20:27:02.218Z,97839.88
2018-06-23T20:29:35.083Z,97842.29
2018-06-23T20:32:08.192Z,97844.16
2018-06-23T20:34:41.221Z,97841.16
2018-06-23T20:37:14.038Z,97850.90
2018-06-23T20:39:46.906Z,97848.16
2018-06-23T20:42:19.639Z,97842.52
2018-06-23T20:44:52.652Z,97844.58
2018-06-23T20:47:25.165Z,97851.67
2018-06-23T20:49:58.395Z,97841.22
2018-06-23T20:52:30.728Z,97843.33
2018-06-23T20:55:03.850Z,97840.92
2018-06-23T20:57:36.955Z,97838.23
2018-06-23T21:00:10.274Z,97833.36
2018-06-23T21:02:43.382Z,97843.33
2018-06-23T21:05:16.545Z,97842.52
2018-06-23T21:07:49.342Z,97840.01
2018-06-23T21:10:32.714Z,97837.07
2018-06-23T21:13:04.992Z,97834.59
2018-06-23T21:15:38.524Z,97833.53
2018-06-23T21:18:11.563Z,97832.19
2018-06-23T21:20:44.805Z,97838.35
2018-06-23T21:23:17.516Z,97841.53
2018-06-23T21:25:50.466Z,97846.92
2018-06-23T21:28:23.383Z,97843.16
2018-06-23T21:30:56.432Z,97828.27
2018-06-23T21:33:29.712Z,97831.80
2018-06-23T21:36:02.871Z,97832.31
2018-06-23T21:38:35.113Z,97827.36
2018-06-23T21:41:07.916Z,97828.27
2018-06-23T21:43:40.723Z,97835.75
2018-06-23T21:46:14.667Z,97839.34
2018-06-23T21:48:47.682Z,97836.80
2018-06-23T21:51:20.475Z,97835.44
2018-06-23T21:53:53.534Z,97841.91
2018-06-23T21:56:26.328Z,97846.25
2018-06-23T21:58:59.793Z,97844.61
2018-06-23T22:01:33.370Z,97850.56
2018-06-23T22:04:06.695Z,97851.28
2018-06-23T22:06:39.862Z,97851.86
2018-06-23T22:09:13.330Z,97853.69
2018-06-23T22:11:47.516Z,97843.95
2018-06-23T22:14:20.333Z,97844.83
2018-06-23T22:16:53.393Z,97836.67
2018-06-23T22:19:26.188Z,97836.37
2018-06-23T22:21:59.204Z,97847.17
2018-06-23T22:24:32.038Z,97843.36
2018-06-23T22:27:04.935Z,97849.86
2018-06-23T22:29:37.504Z,97843.13
2018-06-23T22:32:09.979Z,97838.13
2018-06-23T22:34:42.838Z,97841.12
2018-06-23T22:37:15.482Z,97846.52
2018-06-23T22:39:48.450Z,97850.05
2018-06-23T22:42:22.503Z,97853.25
2018-06-23T22:44:54.925Z,97860.00
2018-06-23T22:47:27.855Z,97872.97
2018-06-23T22:50:00.384Z,97860.77
2018-06-23T22:52:33.289Z,97863.75
2018-06-23T22:55:05.650Z,97858.13
2018-06-23T22:57:38.424Z,97862.16
2018-06-23T23:00:15.715Z,97865.05
2018-06-23T23:02:48.548Z,97865.10
2018-06-23T23:05:21.084Z,97857.70
2018-06-23T23:07:54.274Z,97861.27
2018-06-23T23:10:26.895Z,97860.40
2018-06-23T23:13:00.532Z,97865.21
2018-06-23T23:15:33.320Z,97866.37
2018-06-23T23:18:06.348Z,97870.84
2018-06-23T23:20:39.528Z,97870.31
2018-06-23T23:23:12.598Z,97868.70
2018-06-23T23:25:45.368Z,97874.36
2018-06-23T23:28:18.142Z,97876.58
2018-06-23T23:30:50.388Z,97879.22
2018-06-23T23:33:23.256Z,97873.30
2018-06-23T23:35:56.308Z,97875.45
2018-06-23T23:38:28.672Z,97876.50
2018-06-23T23:41:01.019Z,97876.50
2018-06-23T23:43:33.801Z,97886.76
2018-06-23T23:46:06.837Z,97897.48
2018-06-23T23:48:39.013Z,97904.81
2018-06-23T23:51:12.030Z,97910.89
2018-06-23T23:53:45.062Z,97913.37
2018-06-23T23:56:17.644Z,97916.52
2018-06-23T23:58:50.772Z,97912.88
